sensor_id;sensor_type;location;lat;lon;timestamp;P1;durP1;ratioP1;P2;durP2;ratioP2
18806;SDS011;9531;52.030;4.380;2023-02-07T00:00:41;12.97;;;5.63;;
18806;SDS011;9531;52.030;4.380;2023-02-07T00:03:08;13.60;;;5.87;;
18806;SDS011;9531;52.030;4.380;2023-02-07T00:05:38;13.90;;;6.30;;
18806;SDS011;9531;52.030;4.380;2023-02-07T00:08:05;12.73;;;6.23;;
18806;SDS011;9531;52.030;4.380;2023-02-07T00:10:33;14.43;;;6.70;;
18806;SDS011;9531;52.030;4.380;2023-02-07T00:13:00;17.13;;;6.30;;
18806;SDS011;9531;52.030;4.380;2023-02-07T00:15:39;15.90;;;6.40;;
18806;SDS011;9531;52.030;4.380;2023-02-07T00:18:06;16.93;;;6.80;;
18806;SDS011;9531;52.030;4.380;2023-02-07T00:20:40;12.63;;;7.03;;
18806;SDS011;9531;52.030;4.380;2023-02-07T00:23:08;15.60;;;6.53;;
18806;SDS011;9531;52.030;4.380;2023-02-07T00:25:35;15.87;;;6.30;;
18806;SDS011;9531;52.030;4.380;2023-02-07T00:28:14;14.67;;;6.27;;
18806;SDS011;9531;52.030;4.380;2023-02-07T00:30:41;17.50;;;6.67;;
18806;SDS011;9531;52.030;4.380;2023-02-07T00:33:08;15.73;;;6.40;;
18806;SDS011;9531;52.030;4.380;2023-02-07T00:35:35;19.57;;;7.17;;
18806;SDS011;9531;52.030;4.380;2023-02-07T00:38:10;16.97;;;6.97;;
18806;SDS011;9531;52.030;4.380;2023-02-07T00:43:22;15.10;;;6.03;;
18806;SDS011;9531;52.030;4.380;2023-02-07T00:45:49;12.60;;;6.17;;
18806;SDS011;9531;52.030;4.380;2023-02-07T00:48:16;11.73;;;5.97;;
18806;SDS011;9531;52.030;4.380;2023-02-07T00:50:43;15.33;;;6.40;;
18806;SDS011;9531;52.030;4.380;2023-02-07T00:53:12;13.97;;;6.67;;
18806;SDS011;9531;52.030;4.380;2023-02-07T00:55:42;17.20;;;6.43;;
18806;SDS011;9531;52.030;4.380;2023-02-07T00:58:09;13.73;;;6.40;;
18806;SDS011;9531;52.030;4.380;2023-02-07T01:00:36;18.40;;;6.80;;
18806;SDS011;9531;52.030;4.380;2023-02-07T01:03:04;14.07;;;6.43;;
18806;SDS011;9531;52.030;4.380;2023-02-07T01:05:31;13.13;;;6.80;;
18806;SDS011;9531;52.030;4.380;2023-02-07T01:07:59;16.07;;;6.63;;
18806;SDS011;9531;52.030;4.380;2023-02-07T01:10:28;15.77;;;6.23;;
18806;SDS011;9531;52.030;4.380;2023-02-07T01:12:55;15.00;;;6.30;;
18806;SDS011;9531;52.030;4.380;2023-02-07T01:15:24;15.97;;;6.53;;
18806;SDS011;9531;52.030;4.380;2023-02-07T01:17:51;17.87;;;6.60;;
18806;SDS011;9531;52.030;4.380;2023-02-07T01:20:19;15.70;;;6.57;;
18806;SDS011;9531;52.030;4.380;2023-02-07T01:22:48;15.10;;;6.67;;
18806;SDS011;9531;52.030;4.380;2023-02-07T01:25:15;18.37;;;6.53;;
18806;SDS011;9531;52.030;4.380;2023-02-07T01:27:44;16.87;;;6.43;;
18806;SDS011;9531;52.030;4.380;2023-02-07T01:30:11;12.00;;;6.43;;
18806;SDS011;9531;52.030;4.380;2023-02-07T01:32:40;16.17;;;6.47;;
18806;SDS011;9531;52.030;4.380;2023-02-07T01:35:07;17.57;;;6.03;;
18806;SDS011;9531;52.030;4.380;2023-02-07T01:37:35;13.13;;;5.50;;
18806;SDS011;9531;52.030;4.380;2023-02-07T01:40:03;16.57;;;6.67;;
18806;SDS011;9531;52.030;4.380;2023-02-07T01:42:30;17.47;;;6.43;;
18806;SDS011;9531;52.030;4.380;2023-02-07T01:45:01;14.17;;;5.93;;
18806;SDS011;9531;52.030;4.380;2023-02-07T01:47:32;14.43;;;6.27;;
18806;SDS011;9531;52.030;4.380;2023-02-07T01:50:04;14.90;;;6.47;;
18806;SDS011;9531;52.030;4.380;2023-02-07T01:52:32;14.20;;;5.50;;
18806;SDS011;9531;52.030;4.380;2023-02-07T01:55:05;12.37;;;6.00;;
18806;SDS011;9531;52.030;4.380;2023-02-07T01:57:35;14.53;;;6.00;;
18806;SDS011;9531;52.030;4.380;2023-02-07T02:00:04;13.80;;;6.23;;
18806;SDS011;9531;52.030;4.380;2023-02-07T02:02:40;18.17;;;5.83;;
18806;SDS011;9531;52.030;4.380;2023-02-07T02:05:08;11.17;;;5.20;;
18806;SDS011;9531;52.030;4.380;2023-02-07T02:07:36;14.03;;;5.70;;
18806;SDS011;9531;52.030;4.380;2023-02-07T02:10:05;12.03;;;5.37;;
18806;SDS011;9531;52.030;4.380;2023-02-07T02:15:35;8.97;;;5.10;;
18806;SDS011;9531;52.030;4.380;2023-02-07T02:18:35;9.57;;;5.80;;
18806;SDS011;9531;52.030;4.380;2023-02-07T02:21:47;10.53;;;4.93;;
18806;SDS011;9531;52.030;4.380;2023-02-07T02:25:06;7.47;;;4.97;;
18806;SDS011;9531;52.030;4.380;2023-02-07T02:27:59;10.97;;;5.37;;
18806;SDS011;9531;52.030;4.380;2023-02-07T02:30:56;12.00;;;4.80;;
18806;SDS011;9531;52.030;4.380;2023-02-07T02:33:42;10.23;;;5.47;;
18806;SDS011;9531;52.030;4.380;2023-02-07T02:36:17;9.70;;;5.20;;
18806;SDS011;9531;52.030;4.380;2023-02-07T02:38:52;8.93;;;4.83;;
18806;SDS011;9531;52.030;4.380;2023-02-07T02:41:27;12.97;;;5.60;;
18806;SDS011;9531;52.030;4.380;2023-02-07T02:43:57;11.03;;;5.07;;
18806;SDS011;9531;52.030;4.380;2023-02-07T02:46:34;10.47;;;5.40;;
18806;SDS011;9531;52.030;4.380;2023-02-07T02:49:07;11.27;;;5.87;;
18806;SDS011;9531;52.030;4.380;2023-02-07T02:51:41;10.67;;;5.27;;
18806;SDS011;9531;52.030;4.380;2023-02-07T02:57:02;11.70;;;5.90;;
18806;SDS011;9531;52.030;4.380;2023-02-07T03:00:03;12.70;;;5.37;;
18806;SDS011;9531;52.030;4.380;2023-02-07T03:02:50;12.27;;;5.47;;
18806;SDS011;9531;52.030;4.380;2023-02-07T03:05:33;13.17;;;5.70;;
18806;SDS011;9531;52.030;4.380;2023-02-07T03:08:11;9.77;;;5.20;;
18806;SDS011;9531;52.030;4.380;2023-02-07T03:10:54;11.03;;;5.20;;
18806;SDS011;9531;52.030;4.380;2023-02-07T03:13:36;13.40;;;5.67;;
18806;SDS011;9531;52.030;4.380;2023-02-07T03:16:16;9.23;;;5.57;;
18806;SDS011;9531;52.030;4.380;2023-02-07T03:18:51;10.80;;;5.50;;
18806;SDS011;9531;52.030;4.380;2023-02-07T03:21:29;9.97;;;5.50;;
18806;SDS011;9531;52.030;4.380;2023-02-07T03:24:00;13.40;;;5.33;;
18806;SDS011;9531;52.030;4.380;2023-02-07T03:26:30;10.13;;;5.13;;
18806;SDS011;9531;52.030;4.380;2023-02-07T03:28:58;9.83;;;5.50;;
18806;SDS011;9531;52.030;4.380;2023-02-07T03:31:29;11.57;;;5.67;;
18806;SDS011;9531;52.030;4.380;2023-02-07T03:33:59;10.90;;;5.20;;
18806;SDS011;9531;52.030;4.380;2023-02-07T03:36:37;13.23;;;6.03;;
18806;SDS011;9531;52.030;4.380;2023-02-07T03:39:07;11.43;;;5.60;;
18806;SDS011;9531;52.030;4.380;2023-02-07T03:41:35;11.20;;;5.73;;
18806;SDS011;9531;52.030;4.380;2023-02-07T03:44:07;9.70;;;5.40;;
18806;SDS011;9531;52.030;4.380;2023-02-07T03:46:37;8.87;;;5.20;;
18806;SDS011;9531;52.030;4.380;2023-02-07T03:49:05;10.63;;;5.53;;
18806;SDS011;9531;52.030;4.380;2023-02-07T03:51:33;9.87;;;5.63;;
18806;SDS011;9531;52.030;4.380;2023-02-07T03:54:02;10.80;;;5.67;;
18806;SDS011;9531;52.030;4.380;2023-02-07T03:56:29;8.23;;;4.83;;
18806;SDS011;9531;52.030;4.380;2023-02-07T03:58:57;10.60;;;5.33;;
18806;SDS011;9531;52.030;4.380;2023-02-07T04:01:24;8.87;;;4.63;;
18806;SDS011;9531;52.030;4.380;2023-02-07T04:03:58;12.83;;;5.90;;
18806;SDS011;9531;52.030;4.380;2023-02-07T04:06:29;12.13;;;5.63;;
18806;SDS011;9531;52.030;4.380;2023-02-07T04:08:56;9.90;;;5.63;;
18806;SDS011;9531;52.030;4.380;2023-02-07T04:11:27;9.33;;;5.60;;
18806;SDS011;9531;52.030;4.380;2023-02-07T04:13:55;9.73;;;4.77;;
18806;SDS011;9531;52.030;4.380;2023-02-07T04:16:22;12.97;;;5.73;;
18806;SDS011;9531;52.030;4.380;2023-02-07T04:18:55;16.87;;;6.90;;
18806;SDS011;9531;52.030;4.380;2023-02-07T04:21:23;13.67;;;5.53;;
18806;SDS011;9531;52.030;4.380;2023-02-07T04:23:50;12.20;;;5.80;;
18806;SDS011;9531;52.030;4.380;2023-02-07T04:26:18;16.60;;;6.53;;
18806;SDS011;9531;52.030;4.380;2023-02-07T04:28:47;13.37;;;6.13;;
18806;SDS011;9531;52.030;4.380;2023-02-07T04:31:14;9.53;;;5.17;;
18806;SDS011;9531;52.030;4.380;2023-02-07T04:36:15;9.47;;;5.43;;
18806;SDS011;9531;52.030;4.380;2023-02-07T04:38:43;18.57;;;6.80;;
18806;SDS011;9531;52.030;4.380;2023-02-07T04:41:10;11.13;;;5.80;;
18806;SDS011;9531;52.030;4.380;2023-02-07T04:43:41;11.10;;;5.73;;
18806;SDS011;9531;52.030;4.380;2023-02-07T04:46:10;12.63;;;5.73;;
18806;SDS011;9531;52.030;4.380;2023-02-07T04:48:41;11.40;;;5.80;;
18806;SDS011;9531;52.030;4.380;2023-02-07T04:51:07;16.07;;;5.57;;
18806;SDS011;9531;52.030;4.380;2023-02-07T04:53:42;17.00;;;5.73;;
18806;SDS011;9531;52.030;4.380;2023-02-07T04:56:10;13.33;;;5.97;;
18806;SDS011;9531;52.030;4.380;2023-02-07T04:58:38;11.30;;;5.40;;
18806;SDS011;9531;52.030;4.380;2023-02-07T05:01:05;15.20;;;6.60;;
18806;SDS011;9531;52.030;4.380;2023-02-07T05:03:34;13.80;;;6.37;;
18806;SDS011;9531;52.030;4.380;2023-02-07T05:06:01;15.93;;;6.57;;
18806;SDS011;9531;52.030;4.380;2023-02-07T05:08:27;15.77;;;6.50;;
18806;SDS011;9531;52.030;4.380;2023-02-07T05:10:59;15.30;;;6.23;;
18806;SDS011;9531;52.030;4.380;2023-02-07T05:13:26;12.67;;;6.70;;
18806;SDS011;9531;52.030;4.380;2023-02-07T05:15:54;13.97;;;6.77;;
18806;SDS011;9531;52.030;4.380;2023-02-07T05:18:23;13.57;;;6.27;;
18806;SDS011;9531;52.030;4.380;2023-02-07T05:23:27;14.00;;;6.10;;
18806;SDS011;9531;52.030;4.380;2023-02-07T05:25:54;17.90;;;6.80;;
18806;SDS011;9531;52.030;4.380;2023-02-07T05:28:21;15.83;;;5.83;;
18806;SDS011;9531;52.030;4.380;2023-02-07T05:30:51;13.43;;;6.33;;
18806;SDS011;9531;52.030;4.380;2023-02-07T05:33:20;13.47;;;6.43;;
18806;SDS011;9531;52.030;4.380;2023-02-07T05:35:46;11.47;;;5.77;;
18806;SDS011;9531;52.030;4.380;2023-02-07T05:38:16;12.70;;;5.67;;
18806;SDS011;9531;52.030;4.380;2023-02-07T05:40:44;14.53;;;6.60;;
18806;SDS011;9531;52.030;4.380;2023-02-07T05:43:14;14.20;;;6.90;;
18806;SDS011;9531;52.030;4.380;2023-02-07T05:45:42;13.40;;;6.97;;
18806;SDS011;9531;52.030;4.380;2023-02-07T05:48:10;15.30;;;6.83;;
18806;SDS011;9531;52.030;4.380;2023-02-07T05:50:37;13.53;;;7.17;;
18806;SDS011;9531;52.030;4.380;2023-02-07T05:53:18;16.50;;;8.47;;
18806;SDS011;9531;52.030;4.380;2023-02-07T05:55:49;15.33;;;7.60;;
18806;SDS011;9531;52.030;4.380;2023-02-07T05:58:16;25.83;;;8.10;;
18806;SDS011;9531;52.030;4.380;2023-02-07T06:00:47;24.57;;;9.27;;
18806;SDS011;9531;52.030;4.380;2023-02-07T06:03:14;21.50;;;8.40;;
18806;SDS011;9531;52.030;4.380;2023-02-07T06:05:41;18.33;;;7.63;;
18806;SDS011;9531;52.030;4.380;2023-02-07T06:08:09;19.50;;;7.27;;
18806;SDS011;9531;52.030;4.380;2023-02-07T06:10:37;17.23;;;8.43;;
18806;SDS011;9531;52.030;4.380;2023-02-07T06:13:05;17.93;;;8.63;;
18806;SDS011;9531;52.030;4.380;2023-02-07T06:15:34;21.23;;;9.07;;
18806;SDS011;9531;52.030;4.380;2023-02-07T06:18:01;18.87;;;7.63;;
18806;SDS011;9531;52.030;4.380;2023-02-07T06:20:28;17.93;;;8.40;;
18806;SDS011;9531;52.030;4.380;2023-02-07T06:23:01;16.77;;;8.40;;
18806;SDS011;9531;52.030;4.380;2023-02-07T06:25:29;19.07;;;8.40;;
18806;SDS011;9531;52.030;4.380;2023-02-07T06:27:58;21.40;;;8.90;;
18806;SDS011;9531;52.030;4.380;2023-02-07T06:30:25;19.60;;;8.97;;
18806;SDS011;9531;52.030;4.380;2023-02-07T06:32:52;22.37;;;8.77;;
18806;SDS011;9531;52.030;4.380;2023-02-07T06:35:19;15.80;;;8.60;;
18806;SDS011;9531;52.030;4.380;2023-02-07T06:37:46;17.93;;;8.37;;
18806;SDS011;9531;52.030;4.380;2023-02-07T06:40:15;19.17;;;8.43;;
18806;SDS011;9531;52.030;4.380;2023-02-07T06:42:43;18.53;;;9.07;;
18806;SDS011;9531;52.030;4.380;2023-02-07T06:45:18;19.80;;;8.77;;
18806;SDS011;9531;52.030;4.380;2023-02-07T06:47:54;17.07;;;7.67;;
18806;SDS011;9531;52.030;4.380;2023-02-07T06:50:21;28.47;;;13.10;;
18806;SDS011;9531;52.030;4.380;2023-02-07T06:52:49;31.57;;;12.13;;
18806;SDS011;9531;52.030;4.380;2023-02-07T06:55:17;27.13;;;11.57;;
18806;SDS011;9531;52.030;4.380;2023-02-07T06:57:44;30.67;;;13.77;;
18806;SDS011;9531;52.030;4.380;2023-02-07T07:00:14;21.77;;;10.57;;
18806;SDS011;9531;52.030;4.380;2023-02-07T07:02:42;26.00;;;12.13;;
18806;SDS011;9531;52.030;4.380;2023-02-07T07:05:09;34.63;;;13.93;;
18806;SDS011;9531;52.030;4.380;2023-02-07T07:07:36;26.27;;;11.83;;
18806;SDS011;9531;52.030;4.380;2023-02-07T07:12:53;42.83;;;17.13;;
18806;SDS011;9531;52.030;4.380;2023-02-07T07:15:22;31.93;;;14.73;;
18806;SDS011;9531;52.030;4.380;2023-02-07T07:17:49;35.70;;;12.83;;
18806;SDS011;9531;52.030;4.380;2023-02-07T07:20:16;34.40;;;13.57;;
18806;SDS011;9531;52.030;4.380;2023-02-07T07:22:45;31.97;;;13.80;;
18806;SDS011;9531;52.030;4.380;2023-02-07T07:25:13;29.27;;;13.90;;
18806;SDS011;9531;52.030;4.380;2023-02-07T07:27:40;52.80;;;19.03;;
18806;SDS011;9531;52.030;4.380;2023-02-07T07:30:17;44.70;;;16.50;;
18806;SDS011;9531;52.030;4.380;2023-02-07T07:32:46;39.87;;;18.13;;
18806;SDS011;9531;52.030;4.380;2023-02-07T07:35:13;32.87;;;14.77;;
18806;SDS011;9531;52.030;4.380;2023-02-07T07:37:40;28.87;;;12.83;;
18806;SDS011;9531;52.030;4.380;2023-02-07T07:40:16;30.20;;;15.10;;
18806;SDS011;9531;52.030;4.380;2023-02-07T07:42:46;51.63;;;18.40;;
18806;SDS011;9531;52.030;4.380;2023-02-07T07:45:13;32.10;;;14.97;;
18806;SDS011;9531;52.030;4.380;2023-02-07T07:47:43;29.33;;;13.60;;
18806;SDS011;9531;52.030;4.380;2023-02-07T07:50:12;36.60;;;16.67;;
18806;SDS011;9531;52.030;4.380;2023-02-07T07:52:39;43.97;;;15.73;;
18806;SDS011;9531;52.030;4.380;2023-02-07T07:55:07;61.70;;;17.90;;
18806;SDS011;9531;52.030;4.380;2023-02-07T07:57:34;40.53;;;17.17;;
18806;SDS011;9531;52.030;4.380;2023-02-07T08:00:04;36.97;;;14.70;;
18806;SDS011;9531;52.030;4.380;2023-02-07T08:02:31;40.43;;;16.93;;
18806;SDS011;9531;52.030;4.380;2023-02-07T08:04:58;51.23;;;16.60;;
18806;SDS011;9531;52.030;4.380;2023-02-07T08:07:27;55.33;;;16.17;;
18806;SDS011;9531;52.030;4.380;2023-02-07T08:09:54;53.67;;;15.63;;
18806;SDS011;9531;52.030;4.380;2023-02-07T08:12:21;44.47;;;16.07;;
18806;SDS011;9531;52.030;4.380;2023-02-07T08:14:49;53.90;;;16.00;;
18806;SDS011;9531;52.030;4.380;2023-02-07T08:17:16;50.33;;;15.20;;
18806;SDS011;9531;52.030;4.380;2023-02-07T08:19:43;41.27;;;14.57;;
18806;SDS011;9531;52.030;4.380;2023-02-07T08:22:11;30.40;;;14.53;;
18806;SDS011;9531;52.030;4.380;2023-02-07T08:24:40;37.97;;;14.90;;
18806;SDS011;9531;52.030;4.380;2023-02-07T08:27:07;51.53;;;16.07;;
18806;SDS011;9531;52.030;4.380;2023-02-07T08:29:35;41.70;;;15.00;;
18806;SDS011;9531;52.030;4.380;2023-02-07T08:32:02;53.47;;;16.17;;
18806;SDS011;9531;52.030;4.380;2023-02-07T08:34:29;37.73;;;15.70;;
18806;SDS011;9531;52.030;4.380;2023-02-07T08:37:01;36.37;;;15.47;;
18806;SDS011;9531;52.030;4.380;2023-02-07T08:39:28;47.50;;;15.33;;
18806;SDS011;9531;52.030;4.380;2023-02-07T08:41:57;44.13;;;15.80;;
18806;SDS011;9531;52.030;4.380;2023-02-07T08:44:24;39.73;;;14.37;;
18806;SDS011;9531;52.030;4.380;2023-02-07T08:46:51;30.93;;;14.10;;
18806;SDS011;9531;52.030;4.380;2023-02-07T08:49:18;29.87;;;14.80;;
18806;SDS011;9531;52.030;4.380;2023-02-07T08:51:46;30.70;;;14.87;;
18806;SDS011;9531;52.030;4.380;2023-02-07T08:54:13;48.17;;;15.37;;
18806;SDS011;9531;52.030;4.380;2023-02-07T08:56:40;55.00;;;15.40;;
18806;SDS011;9531;52.030;4.380;2023-02-07T08:59:09;29.63;;;14.40;;
18806;SDS011;9531;52.030;4.380;2023-02-07T09:01:36;45.97;;;15.43;;
18806;SDS011;9531;52.030;4.380;2023-02-07T09:04:04;36.33;;;15.57;;
18806;SDS011;9531;52.030;4.380;2023-02-07T09:06:32;44.83;;;15.30;;
18806;SDS011;9531;52.030;4.380;2023-02-07T09:08:59;32.90;;;13.83;;
18806;SDS011;9531;52.030;4.380;2023-02-07T09:11:27;43.33;;;14.87;;
18806;SDS011;9531;52.030;4.380;2023-02-07T09:13:54;26.27;;;14.07;;
18806;SDS011;9531;52.030;4.380;2023-02-07T09:16:23;27.17;;;14.47;;
18806;SDS011;9531;52.030;4.380;2023-02-07T09:18:50;33.87;;;15.27;;
18806;SDS011;9531;52.030;4.380;2023-02-07T09:21:18;33.93;;;14.67;;
18806;SDS011;9531;52.030;4.380;2023-02-07T09:23:45;25.77;;;14.53;;
18806;SDS011;9531;52.030;4.380;2023-02-07T09:26:14;29.70;;;14.70;;
18806;SDS011;9531;52.030;4.380;2023-02-07T09:28:42;28.10;;;13.50;;
18806;SDS011;9531;52.030;4.380;2023-02-07T09:31:10;37.70;;;14.83;;
18806;SDS011;9531;52.030;4.380;2023-02-07T09:33:41;28.30;;;14.30;;
18806;SDS011;9531;52.030;4.380;2023-02-07T09:36:14;34.57;;;15.20;;
18806;SDS011;9531;52.030;4.380;2023-02-07T09:38:43;24.03;;;13.37;;
18806;SDS011;9531;52.030;4.380;2023-02-07T09:41:13;30.73;;;15.57;;
18806;SDS011;9531;52.030;4.380;2023-02-07T09:43:52;37.77;;;16.67;;
18806;SDS011;9531;52.030;4.380;2023-02-07T09:46:29;30.87;;;15.30;;
18806;SDS011;9531;52.030;4.380;2023-02-07T09:49:03;35.93;;;15.07;;
18806;SDS011;9531;52.030;4.380;2023-02-07T09:51:35;32.83;;;15.60;;
18806;SDS011;9531;52.030;4.380;2023-02-07T09:54:05;28.30;;;14.37;;
18806;SDS011;9531;52.030;4.380;2023-02-07T09:56:38;35.93;;;17.43;;
18806;SDS011;9531;52.030;4.380;2023-02-07T09:59:09;35.43;;;17.23;;
18806;SDS011;9531;52.030;4.380;2023-02-07T10:01:47;32.60;;;15.93;;
18806;SDS011;9531;52.030;4.380;2023-02-07T10:04:27;34.60;;;16.53;;
18806;SDS011;9531;52.030;4.380;2023-02-07T10:06:58;34.20;;;15.70;;
18806;SDS011;9531;52.030;4.380;2023-02-07T10:09:27;31.90;;;15.93;;
18806;SDS011;9531;52.030;4.380;2023-02-07T10:11:58;39.03;;;16.97;;
18806;SDS011;9531;52.030;4.380;2023-02-07T10:14:39;38.37;;;17.73;;
18806;SDS011;9531;52.030;4.380;2023-02-07T10:17:22;30.53;;;16.33;;
18806;SDS011;9531;52.030;4.380;2023-02-07T10:20:02;36.03;;;17.70;;
18806;SDS011;9531;52.030;4.380;2023-02-07T10:22:46;32.33;;;16.17;;
18806;SDS011;9531;52.030;4.380;2023-02-07T10:25:25;36.77;;;18.37;;
18806;SDS011;9531;52.030;4.380;2023-02-07T10:28:19;33.33;;;18.10;;
18806;SDS011;9531;52.030;4.380;2023-02-07T10:30:59;37.33;;;18.07;;
18806;SDS011;9531;52.030;4.380;2023-02-07T10:33:31;35.30;;;17.20;;
18806;SDS011;9531;52.030;4.380;2023-02-07T10:36:02;35.90;;;18.03;;
18806;SDS011;9531;52.030;4.380;2023-02-07T10:38:36;42.13;;;19.80;;
18806;SDS011;9531;52.030;4.380;2023-02-07T10:41:12;38.60;;;19.37;;
18806;SDS011;9531;52.030;4.380;2023-02-07T10:43:43;37.43;;;19.67;;
18806;SDS011;9531;52.030;4.380;2023-02-07T10:46:16;36.97;;;17.80;;
18806;SDS011;9531;52.030;4.380;2023-02-07T10:48:45;34.80;;;17.42;;
18806;SDS011;9531;52.030;4.380;2023-02-07T10:51:20;34.50;;;18.42;;
18806;SDS011;9531;52.030;4.380;2023-02-07T10:54:03;36.30;;;18.20;;
18806;SDS011;9531;52.030;4.380;2023-02-07T10:56:32;37.00;;;19.73;;
18806;SDS011;9531;52.030;4.380;2023-02-07T10:59:03;36.60;;;18.95;;
18806;SDS011;9531;52.030;4.380;2023-02-07T11:01:32;33.58;;;18.55;;
18806;SDS011;9531;52.030;4.380;2023-02-07T11:03:59;29.45;;;16.70;;
18806;SDS011;9531;52.030;4.380;2023-02-07T11:06:28;30.35;;;17.02;;
18806;SDS011;9531;52.030;4.380;2023-02-07T11:09:10;27.48;;;15.63;;
18806;SDS011;9531;52.030;4.380;2023-02-07T11:11:44;33.08;;;19.13;;
18806;SDS011;9531;52.030;4.380;2023-02-07T11:14:15;28.95;;;15.85;;
18806;SDS011;9531;52.030;4.380;2023-02-07T11:16:45;24.33;;;15.30;;
18806;SDS011;9531;52.030;4.380;2023-02-07T11:19:14;30.08;;;17.58;;
18806;SDS011;9531;52.030;4.380;2023-02-07T11:21:47;28.02;;;16.08;;
18806;SDS011;9531;52.030;4.380;2023-02-07T11:24:16;27.33;;;16.75;;
18806;SDS011;9531;52.030;4.380;2023-02-07T11:26:51;33.60;;;16.35;;
18806;SDS011;9531;52.030;4.380;2023-02-07T11:29:21;28.00;;;16.88;;
18806;SDS011;9531;52.030;4.380;2023-02-07T11:31:53;27.63;;;15.32;;
18806;SDS011;9531;52.030;4.380;2023-02-07T11:34:28;26.35;;;15.68;;
18806;SDS011;9531;52.030;4.380;2023-02-07T11:37:20;26.83;;;16.15;;
18806;SDS011;9531;52.030;4.380;2023-02-07T11:39:50;25.65;;;15.07;;
18806;SDS011;9531;52.030;4.380;2023-02-07T11:42:21;25.10;;;15.93;;
18806;SDS011;9531;52.030;4.380;2023-02-07T11:44:49;28.08;;;15.75;;
18806;SDS011;9531;52.030;4.380;2023-02-07T11:47:18;28.00;;;16.38;;
18806;SDS011;9531;52.030;4.380;2023-02-07T11:49:49;25.05;;;14.70;;
18806;SDS011;9531;52.030;4.380;2023-02-07T11:52:20;26.10;;;16.33;;
18806;SDS011;9531;52.030;4.380;2023-02-07T11:54:49;25.08;;;15.15;;
18806;SDS011;9531;52.030;4.380;2023-02-07T11:57:21;24.92;;;15.25;;
18806;SDS011;9531;52.030;4.380;2023-02-07T11:59:52;27.42;;;16.58;;
18806;SDS011;9531;52.030;4.380;2023-02-07T12:02:31;26.13;;;15.77;;
18806;SDS011;9531;52.030;4.380;2023-02-07T12:05:07;23.60;;;15.23;;
18806;SDS011;9531;52.030;4.380;2023-02-07T12:07:41;22.27;;;14.30;;
18806;SDS011;9531;52.030;4.380;2023-02-07T12:10:12;20.30;;;13.80;;
18806;SDS011;9531;52.030;4.380;2023-02-07T12:12:42;23.20;;;14.23;;
18806;SDS011;9531;52.030;4.380;2023-02-07T12:15:12;25.35;;;15.75;;
18806;SDS011;9531;52.030;4.380;2023-02-07T12:17:45;21.98;;;14.10;;
18806;SDS011;9531;52.030;4.380;2023-02-07T12:20:34;23.23;;;13.88;;
18806;SDS011;9531;52.030;4.380;2023-02-07T12:23:05;24.30;;;14.85;;
18806;SDS011;9531;52.030;4.380;2023-02-07T12:25:38;19.65;;;12.48;;
18806;SDS011;9531;52.030;4.380;2023-02-07T12:28:11;19.95;;;12.52;;
18806;SDS011;9531;52.030;4.380;2023-02-07T12:30:44;23.67;;;15.05;;
18806;SDS011;9531;52.030;4.380;2023-02-07T12:35:58;17.25;;;12.18;;
18806;SDS011;9531;52.030;4.380;2023-02-07T12:38:31;21.85;;;12.25;;
18806;SDS011;9531;52.030;4.380;2023-02-07T12:41:04;17.73;;;11.52;;
18806;SDS011;9531;52.030;4.380;2023-02-07T12:43:39;19.35;;;11.05;;
18806;SDS011;9531;52.030;4.380;2023-02-07T12:46:16;16.90;;;11.13;;
18806;SDS011;9531;52.030;4.380;2023-02-07T12:48:53;16.65;;;11.13;;
18806;SDS011;9531;52.030;4.380;2023-02-07T12:51:38;17.88;;;10.57;;
18806;SDS011;9531;52.030;4.380;2023-02-07T12:54:19;17.38;;;10.77;;
18806;SDS011;9531;52.030;4.380;2023-02-07T12:56:56;15.85;;;10.35;;
18806;SDS011;9531;52.030;4.380;2023-02-07T12:59:31;15.00;;;10.75;;
18806;SDS011;9531;52.030;4.380;2023-02-07T13:02:17;20.73;;;11.70;;
18806;SDS011;9531;52.030;4.380;2023-02-07T13:05:03;19.08;;;11.07;;
18806;SDS011;9531;52.030;4.380;2023-02-07T13:07:53;12.98;;;9.25;;
18806;SDS011;9531;52.030;4.380;2023-02-07T13:10:30;16.38;;;9.95;;
18806;SDS011;9531;52.030;4.380;2023-02-07T13:13:04;13.27;;;9.50;;
18806;SDS011;9531;52.030;4.380;2023-02-07T13:15:39;14.02;;;9.20;;
18806;SDS011;9531;52.030;4.380;2023-02-07T13:18:14;13.48;;;8.48;;
18806;SDS011;9531;52.030;4.380;2023-02-07T13:20:50;16.50;;;9.15;;
18806;SDS011;9531;52.030;4.380;2023-02-07T13:23:25;12.00;;;7.93;;
18806;SDS011;9531;52.030;4.380;2023-02-07T13:25:57;12.88;;;8.32;;
18806;SDS011;9531;52.030;4.380;2023-02-07T13:28:27;13.90;;;8.60;;
18806;SDS011;9531;52.030;4.380;2023-02-07T13:31:01;10.82;;;8.07;;
18806;SDS011;9531;52.030;4.380;2023-02-07T13:33:31;13.45;;;8.35;;
18806;SDS011;9531;52.030;4.380;2023-02-07T13:36:02;14.15;;;8.52;;
18806;SDS011;9531;52.030;4.380;2023-02-07T13:38:38;11.20;;;8.27;;
18806;SDS011;9531;52.030;4.380;2023-02-07T13:41:16;15.05;;;9.80;;
18806;SDS011;9531;52.030;4.380;2023-02-07T13:43:55;13.60;;;8.38;;
18806;SDS011;9531;52.030;4.380;2023-02-07T13:46:35;15.63;;;9.43;;
18806;SDS011;9531;52.030;4.380;2023-02-07T13:49:19;13.45;;;9.40;;
18806;SDS011;9531;52.030;4.380;2023-02-07T13:51:57;15.82;;;9.63;;
18806;SDS011;9531;52.030;4.380;2023-02-07T13:54:34;16.15;;;10.05;;
18806;SDS011;9531;52.030;4.380;2023-02-07T13:57:17;11.98;;;8.45;;
18806;SDS011;9531;52.030;4.380;2023-02-07T14:00:13;16.98;;;9.35;;
18806;SDS011;9531;52.030;4.380;2023-02-07T14:02:45;15.00;;;9.07;;
18806;SDS011;9531;52.030;4.380;2023-02-07T14:05:21;13.43;;;9.00;;
18806;SDS011;9531;52.030;4.380;2023-02-07T14:07:54;13.48;;;9.02;;
18806;SDS011;9531;52.030;4.380;2023-02-07T14:10:36;16.30;;;9.93;;
18806;SDS011;9531;52.030;4.380;2023-02-07T14:13:22;14.10;;;8.60;;
18806;SDS011;9531;52.030;4.380;2023-02-07T14:16:01;16.23;;;9.38;;
18806;SDS011;9531;52.030;4.380;2023-02-07T14:18:39;14.68;;;9.35;;
18806;SDS011;9531;52.030;4.380;2023-02-07T14:21:30;14.07;;;8.40;;
18806;SDS011;9531;52.030;4.380;2023-02-07T14:24:15;13.13;;;8.18;;
18806;SDS011;9531;52.030;4.380;2023-02-07T14:30:14;11.20;;;7.18;;
18806;SDS011;9531;52.030;4.380;2023-02-07T14:35:44;12.00;;;7.50;;
18806;SDS011;9531;52.030;4.380;2023-02-07T14:38:31;12.38;;;6.88;;
18806;SDS011;9531;52.030;4.380;2023-02-07T14:41:04;10.23;;;6.20;;
18806;SDS011;9531;52.030;4.380;2023-02-07T14:43:33;8.32;;;5.63;;
18806;SDS011;9531;52.030;4.380;2023-02-07T14:46:09;8.90;;;5.68;;
18806;SDS011;9531;52.030;4.380;2023-02-07T14:48:45;8.32;;;4.93;;
18806;SDS011;9531;52.030;4.380;2023-02-07T14:51:17;10.63;;;5.18;;
18806;SDS011;9531;52.030;4.380;2023-02-07T14:53:50;7.60;;;5.13;;
18806;SDS011;9531;52.030;4.380;2023-02-07T14:56:28;8.52;;;5.22;;
18806;SDS011;9531;52.030;4.380;2023-02-07T14:59:05;8.82;;;6.30;;
18806;SDS011;9531;52.030;4.380;2023-02-07T15:01:37;8.95;;;5.82;;
18806;SDS011;9531;52.030;4.380;2023-02-07T15:04:05;10.90;;;6.57;;
18806;SDS011;9531;52.030;4.380;2023-02-07T15:06:37;11.05;;;7.25;;
18806;SDS011;9531;52.030;4.380;2023-02-07T15:09:13;12.73;;;6.50;;
18806;SDS011;9531;52.030;4.380;2023-02-07T15:11:45;10.07;;;7.25;;
18806;SDS011;9531;52.030;4.380;2023-02-07T15:14:18;11.00;;;7.13;;
18806;SDS011;9531;52.030;4.380;2023-02-07T15:16:49;12.18;;;7.47;;
18806;SDS011;9531;52.030;4.380;2023-02-07T15:19:18;11.35;;;7.20;;
18806;SDS011;9531;52.030;4.380;2023-02-07T15:21:49;10.55;;;6.95;;
18806;SDS011;9531;52.030;4.380;2023-02-07T15:24:16;12.43;;;7.70;;
18806;SDS011;9531;52.030;4.380;2023-02-07T15:26:49;12.40;;;7.15;;
18806;SDS011;9531;52.030;4.380;2023-02-07T15:29:22;13.77;;;8.23;;
18806;SDS011;9531;52.030;4.380;2023-02-07T15:31:51;16.50;;;8.45;;
18806;SDS011;9531;52.030;4.380;2023-02-07T15:34:19;13.02;;;8.10;;
18806;SDS011;9531;52.030;4.380;2023-02-07T15:36:48;16.65;;;9.32;;